Time;durP1;ratioP1;P1;durP2;ratioP2;P2;SDS_P1;SDS_P2;PMS_P1;PMS_P2;Temp;Humidity;BMP_temperature;BMP_pressure;BME280_temperature;BME280_humidity;BME280_pressure;Samples;Min_cycle;Max_cycle;Signal;HPM_P1;HPM_P2
2023/01/30 00:00:56;;;;;;;8.60;8.20;;;;;;;;;;5083311;28;20076;-67
2023/01/30 00:03:22;;;;;;;8.60;8.20;;;;;;;;;;5101643;28;20375;-67
2023/01/30 00:05:47;;;;;;;8.88;8.48;;;;;;;;;;5098813;28;20027;-67
2023/01/30 00:08:12;;;;;;;8.70;8.30;;;;;;;;;;5102255;28;20115;-66
2023/01/30 00:10:38;;;;;;;8.80;8.40;;;;;;;;;;5103028;28;20023;-68
2023/01/30 00:13:03;;;;;;;8.60;8.20;;;;;;;;;;5101532;28;20471;-68
2023/01/30 00:15:28;;;;;;;8.98;8.57;;;;;;;;;;5097723;28;20016;-67
2023/01/30 00:17:54;;;;;;;8.60;8.20;;;;;;;;;;5101122;28;20368;-67
2023/01/30 00:20:19;;;;;;;8.95;8.55;;;;;;;;;;5102832;28;20084;-67
2023/01/30 00:22:44;;;;;;;8.93;8.52;;;;;;;;;;5099629;28;20024;-67
2023/01/30 00:25:09;;;;;;;8.60;8.20;;;;;;;;;;5100950;28;20028;-67
2023/01/30 00:27:35;;;;;;;8.77;8.38;;;;;;;;;;5095375;28;20032;-67
2023/01/30 00:30:03;;;;;;;8.80;8.40;;;;;;;;;;5105917;28;20020;-66
2023/01/30 00:32:28;;;;;;;8.95;8.55;;;;;;;;;;5098549;28;20016;-67
2023/01/30 00:34:53;;;;;;;9.55;9.05;;;;;;;;;;5080080;28;20022;-67
2023/01/30 00:37:19;;;;;;;8.68;8.27;;;;;;;;;;5095616;28;20024;-67
2023/01/30 00:39:44;;;;;;;8.93;8.52;;;;;;;;;;5103303;28;20391;-66
2023/01/30 00:47:37;;;;;;;8.70;8.30;;;;;;;;;;5105917;28;20046;-66
2023/01/30 00:50:03;;;;;;;8.40;8.00;;;;;;;;;;5098815;28;20024;-67
2023/01/30 00:52:28;;;;;;;8.93;8.52;;;;;;;;;;5103068;28;20382;-66
2023/01/30 00:54:53;;;;;;;8.60;8.20;;;;;;;;;;5108530;28;20024;-67
2023/01/30 00:57:19;;;;;;;8.52;8.13;;;;;;;;;;5102422;28;20042;-67
2023/01/30 00:59:44;;;;;;;8.80;8.40;;;;;;;;;;5100429;28;20426;-67
2023/01/30 01:02:09;;;;;;;8.38;7.97;;;;;;;;;;5099885;28;20054;-67
2023/01/30 01:04:42;;;;;;;8.90;8.50;;;;;;;;;;5102349;28;20024;-66
2023/01/30 01:07:08;;;;;;;8.30;7.90;;;;;;;;;;5098384;28;20023;-67
2023/01/30 01:09:33;;;;;;;8.73;8.32;;;;;;;;;;5083280;28;20024;-66
2023/01/30 01:11:59;;;;;;;8.57;8.18;;;;;;;;;;5099068;28;20521;-66
2023/01/30 01:14:24;;;;;;;8.52;8.13;;;;;;;;;;5104583;28;20015;-67
2023/01/30 01:16:49;;;;;;;8.48;8.07;;;;;;;;;;5102559;28;20073;-67
2023/01/30 01:19:15;;;;;;;9.38;8.88;;;;;;;;;;5079481;28;20436;-67
2023/01/30 01:21:40;;;;;;;8.73;8.32;;;;;;;;;;5105126;28;20026;-67
2023/01/30 01:24:05;;;;;;;9.05;8.65;;;;;;;;;;5102429;28;20030;-67
2023/01/30 01:26:31;;;;;;;9.02;8.63;;;;;;;;;;5099500;28;20051;-67
2023/01/30 01:28:57;;;;;;;8.50;8.10;;;;;;;;;;5097633;28;20054;-67
2023/01/30 01:31:23;;;;;;;8.88;8.48;;;;;;;;;;5098363;28;20023;-67
2023/01/30 01:33:48;;;;;;;8.75;8.35;;;;;;;;;;5099061;28;20043;-67
2023/01/30 01:36:13;;;;;;;8.80;8.40;;;;;;;;;;5083223;28;20034;-67
2023/01/30 01:38:40;;;;;;;9.00;8.60;;;;;;;;;;5102868;28;20268;-67
2023/01/30 01:41:05;;;;;;;8.52;8.13;;;;;;;;;;5101961;28;20027;-66
2023/01/30 01:43:35;;;;;;;9.00;8.60;;;;;;;;;;5103550;28;20024;-67
2023/01/30 01:46:03;;;;;;;9.05;8.65;;;;;;;;;;5102828;28;20024;-67
2023/01/30 01:48:31;;;;;;;8.77;8.38;;;;;;;;;;5101886;28;20024;-67
2023/01/30 01:50:58;;;;;;;9.30;8.85;;;;;;;;;;5103875;28;20101;-67
2023/01/30 01:53:27;;;;;;;8.80;8.40;;;;;;;;;;5093475;28;20030;-67
2023/01/30 01:55:55;;;;;;;8.90;8.50;;;;;;;;;;5103503;28;20038;-66
2023/01/30 01:58:34;;;;;;;9.38;8.90;;;;;;;;;;5100558;28;20098;-67
2023/01/30 02:01:00;;;;;;;8.50;8.10;;;;;;;;;;5098148;28;20028;-67
2023/01/30 02:03:27;;;;;;;8.95;8.55;;;;;;;;;;5102220;28;20031;-66
2023/01/30 02:05:54;;;;;;;8.98;8.57;;;;;;;;;;5086922;28;20069;-66
2023/01/30 02:08:26;;;;;;;9.07;8.68;;;;;;;;;;5094384;28;20027;-65
2023/01/30 02:10:51;;;;;;;9.20;8.80;;;;;;;;;;5096643;28;20019;-67
2023/01/30 02:13:16;;;;;;;8.68;8.27;;;;;;;;;;5081598;28;20057;-67
2023/01/30 02:15:42;;;;;;;9.10;8.70;;;;;;;;;;5096602;28;20496;-67
2023/01/30 02:18:07;;;;;;;9.00;8.60;;;;;;;;;;5104174;28;20016;-67
2023/01/30 02:20:39;;;;;;;8.90;8.50;;;;;;;;;;5101642;28;20020;-67
2023/01/30 02:23:23;;;;;;;9.20;8.80;;;;;;;;;;5093662;28;20032;-66
2023/01/30 02:25:51;;;;;;;8.70;8.30;;;;;;;;;;5095884;28;20081;-66
2023/01/30 02:28:16;;;;;;;8.80;8.40;;;;;;;;;;5097396;28;20039;-66
2023/01/30 02:30:44;;;;;;;8.95;8.55;;;;;;;;;;5096581;28;20020;-66
2023/01/30 02:33:15;;;;;;;8.93;8.52;;;;;;;;;;5102714;28;20024;-67
2023/01/30 02:35:48;;;;;;;8.73;8.32;;;;;;;;;;5086051;28;20016;-67
2023/01/30 02:38:14;;;;;;;8.60;8.20;;;;;;;;;;5105352;28;20066;-66
2023/01/30 02:40:57;;;;;;;9.05;8.65;;;;;;;;;;5096392;28;20048;-66
2023/01/30 02:43:36;;;;;;;8.10;7.80;;;;;;;;;;5104572;28;20055;-66
2023/01/30 02:46:14;;;;;;;8.90;8.50;;;;;;;;;;5102803;28;20035;-67
2023/01/30 02:48:50;;;;;;;9.25;8.77;;;;;;;;;;5101929;28;20372;-67
2023/01/30 02:51:18;;;;;;;8.98;8.57;;;;;;;;;;5102365;28;20475;-67
2023/01/30 02:53:44;;;;;;;9.38;8.95;;;;;;;;;;5100658;28;20398;-66
2023/01/30 02:56:09;;;;;;;9.10;8.70;;;;;;;;;;5105448;28;20020;-67
2023/01/30 02:58:37;;;;;;;9.20;8.80;;;;;;;;;;5098612;28;20035;-67
2023/01/30 03:01:21;;;;;;;9.18;8.77;;;;;;;;;;5098111;28;20046;-66
2023/01/30 03:03:56;;;;;;;9.35;8.85;;;;;;;;;;5104971;28;20046;-66
2023/01/30 03:06:37;;;;;;;8.93;8.52;;;;;;;;;;5102294;28;20089;-68
2023/01/30 03:09:17;;;;;;;9.10;8.70;;;;;;;;;;5102407;28;20487;-67
2023/01/30 03:11:45;;;;;;;9.32;8.85;;;;;;;;;;5086486;28;20080;-68
2023/01/30 03:14:10;;;;;;;8.93;8.52;;;;;;;;;;5102367;28;20069;-68
2023/01/30 03:16:39;;;;;;;8.90;8.50;;;;;;;;;;5102279;28;20027;-68
2023/01/30 03:19:08;;;;;;;9.60;9.10;;;;;;;;;;5101606;28;20030;-70
2023/01/30 03:21:34;;;;;;;8.90;8.50;;;;;;;;;;5098538;28;20017;-66
2023/01/30 03:23:59;;;;;;;8.88;8.48;;;;;;;;;;5109151;28;20490;-67
2023/01/30 03:26:27;;;;;;;8.95;8.55;;;;;;;;;;5098041;28;20025;-66
2023/01/30 03:28:52;;;;;;;8.88;8.48;;;;;;;;;;5082181;28;20024;-66
2023/01/30 03:31:18;;;;;;;8.70;8.30;;;;;;;;;;5100297;28;20035;-67
2023/01/30 03:33:43;;;;;;;8.88;8.48;;;;;;;;;;5106221;28;20336;-67
2023/01/30 03:36:08;;;;;;;8.80;8.40;;;;;;;;;;5100939;28;20027;-66
2023/01/30 03:38:34;;;;;;;9.02;8.63;;;;;;;;;;5081410;28;20020;-68
2023/01/30 03:41:00;;;;;;;8.90;8.50;;;;;;;;;;5103796;28;20113;-67
2023/01/30 03:43:26;;;;;;;9.20;8.75;;;;;;;;;;5101502;28;20410;-67
2023/01/30 03:45:51;;;;;;;8.98;8.57;;;;;;;;;;5100944;28;20036;-67
2023/01/30 03:48:16;;;;;;;8.73;8.32;;;;;;;;;;5084844;28;20028;-67
2023/01/30 03:50:42;;;;;;;9.15;8.75;;;;;;;;;;5086319;28;20023;-67
2023/01/30 03:53:07;;;;;;;9.10;8.70;;;;;;;;;;5103015;28;20024;-67
2023/01/30 03:55:32;;;;;;;9.13;8.73;;;;;;;;;;5102429;28;20020;-67
2023/01/30 03:57:58;;;;;;;8.90;8.50;;;;;;;;;;5103249;28;20070;-67
2023/01/30 04:00:23;;;;;;;8.80;8.40;;;;;;;;;;5101176;28;20016;-67
2023/01/30 04:02:49;;;;;;;9.30;8.80;;;;;;;;;;5101842;28;20106;-66
2023/01/30 04:05:14;;;;;;;9.50;9.00;;;;;;;;;;5104523;28;20028;-68
2023/01/30 04:07:39;;;;;;;9.30;8.82;;;;;;;;;;5093280;28;20050;-68
2023/01/30 04:10:05;;;;;;;8.93;8.52;;;;;;;;;;5100708;28;20020;-67
2023/01/30 04:12:30;;;;;;;8.82;8.43;;;;;;;;;;5098563;28;20032;-67
2023/01/30 04:14:55;;;;;;;8.80;8.40;;;;;;;;;;5101499;28;20015;-68
2023/01/30 04:17:21;;;;;;;8.93;8.52;;;;;;;;;;5104876;28;20012;-67
2023/01/30 04:19:46;;;;;;;8.98;8.57;;;;;;;;;;5100841;28;20016;-67
2023/01/30 04:22:11;;;;;;;9.77;9.25;;;;;;;;;;5096875;28;20031;-67
2023/01/30 04:24:37;;;;;;;9.18;8.68;;;;;;;;;;5101936;28;20095;-67
2023/01/30 04:27:02;;;;;;;9.35;8.85;;;;;;;;;;5096264;28;20020;-66
2023/01/30 04:29:27;;;;;;;9.32;8.82;;;;;;;;;;5103594;28;20433;-67
2023/01/30 04:31:53;;;;;;;9.07;8.68;;;;;;;;;;5100969;28;20475;-67
2023/01/30 04:34:18;;;;;;;9.05;8.65;;;;;;;;;;5096442;28;20107;-64
2023/01/30 04:36:43;;;;;;;10.20;9.60;;;;;;;;;;5099703;28;20467;-65
2023/01/30 04:39:09;;;;;;;9.60;9.10;;;;;;;;;;5094976;28;20025;-66
2023/01/30 04:41:34;;;;;;;9.57;9.07;;;;;;;;;;5100041;28;20403;-67
2023/01/30 04:43:59;;;;;;;9.27;8.77;;;;;;;;;;5098845;28;20028;-66
2023/01/30 04:46:24;;;;;;;9.52;9.02;;;;;;;;;;5093339;28;20422;-67
2023/01/30 04:48:50;;;;;;;9.40;8.90;;;;;;;;;;5096533;28;20038;-66
2023/01/30 04:51:15;;;;;;;9.30;8.90;;;;;;;;;;5075848;28;20031;-67
2023/01/30 04:53:40;;;;;;;9.85;9.35;;;;;;;;;;5100747;28;20021;-67
2023/01/30 04:56:06;;;;;;;9.57;9.07;;;;;;;;;;5109279;28;20523;-66
2023/01/30 04:58:31;;;;;;;10.00;9.50;;;;;;;;;;5098689;28;20054;-67
2023/01/30 05:01:11;;;;;;;9.15;8.75;;;;;;;;;;5090471;28;20031;-67
2023/01/30 05:03:36;;;;;;;9.30;8.90;;;;;;;;;;5097714;28;20511;-69
2023/01/30 05:06:01;;;;;;;9.75;9.25;;;;;;;;;;5100980;28;20032;-69
2023/01/30 05:08:26;;;;;;;9.68;9.18;;;;;;;;;;5103204;28;20024;-69
2023/01/30 05:10:52;;;;;;;9.85;9.35;;;;;;;;;;5082958;28;20036;-67
2023/01/30 05:13:17;;;;;;;9.25;8.85;;;;;;;;;;5101914;28;20027;-68
2023/01/30 05:15:43;;;;;;;9.85;9.35;;;;;;;;;;5094231;28;20059;-67
2023/01/30 05:18:09;;;;;;;9.38;8.95;;;;;;;;;;5096515;28;20016;-67
2023/01/30 05:20:34;;;;;;;9.52;9.02;;;;;;;;;;5095310;28;20471;-67
2023/01/30 05:22:59;;;;;;;9.73;9.23;;;;;;;;;;5108564;28;20035;-67
2023/01/30 05:25:25;;;;;;;9.85;9.35;;;;;;;;;;5104169;28;20095;-67
2023/01/30 05:27:50;;;;;;;10.40;9.80;;;;;;;;;;5081180;28;20032;-68
2023/01/30 05:30:16;;;;;;;9.98;9.48;;;;;;;;;;5100880;28;20076;-67
2023/01/30 05:32:41;;;;;;;10.10;9.60;;;;;;;;;;5090746;28;20928;-68
2023/01/30 05:35:07;;;;;;;9.70;9.20;;;;;;;;;;5094634;28;20016;-67
2023/01/30 05:37:32;;;;;;;10.35;9.80;;;;;;;;;;5092349;28;20023;-66
2023/01/30 05:39:57;;;;;;;10.25;9.75;;;;;;;;;;5095886;28;20450;-68
2023/01/30 05:42:22;;;;;;;10.75;10.15;;;;;;;;;;5097400;28;20016;-68
2023/01/30 05:44:48;;;;;;;11.27;10.57;;;;;;;;;;5103043;28;20024;-67
2023/01/30 05:47:13;;;;;;;10.70;10.10;;;;;;;;;;5094715;28;20113;-67
2023/01/30 05:49:38;;;;;;;10.38;9.77;;;;;;;;;;5099104;28;20019;-68
2023/01/30 05:52:04;;;;;;;9.30;8.88;;;;;;;;;;5096949;28;20137;-67
2023/01/30 05:54:30;;;;;;;9.65;9.15;;;;;;;;;;5090624;28;20063;-67
2023/01/30 05:56:55;;;;;;;9.77;9.27;;;;;;;;;;5073102;28;20490;-66
2023/01/30 05:59:21;;;;;;;9.00;8.50;;;;;;;;;;5104081;28;20023;-68
2023/01/30 06:01:46;;;;;;;9.07;8.57;;;;;;;;;;5102681;28;20031;-66
2023/01/30 06:04:11;;;;;;;8.70;8.25;;;;;;;;;;5080799;28;20022;-66
2023/01/30 06:06:37;;;;;;;8.63;8.15;;;;;;;;;;5109384;28;20024;-67
2023/01/30 06:09:03;;;;;;;9.65;9.05;;;;;;;;;;5101172;28;20378;-67
2023/01/30 06:11:28;;;;;;;9.07;8.57;;;;;;;;;;5088289;28;20467;-67
2023/01/30 06:13:54;;;;;;;8.10;7.70;;;;;;;;;;5101969;28;20047;-66
2023/01/30 06:16:19;;;;;;;8.38;7.97;;;;;;;;;;5105259;28;20062;-66
2023/01/30 06:18:46;;;;;;;8.90;8.40;;;;;;;;;;5101070;28;20072;-66
2023/01/30 06:21:11;;;;;;;8.23;7.82;;;;;;;;;;5106940;28;20051;-66
2023/01/30 06:23:37;;;;;;;8.50;8.10;;;;;;;;;;5102711;28;20157;-65
2023/01/30 06:26:03;;;;;;;8.73;8.32;;;;;;;;;;5098955;28;22603;-66
2023/01/30 06:28:28;;;;;;;8.30;7.90;;;;;;;;;;5088450;28;20035;-66
2023/01/30 06:30:53;;;;;;;8.25;7.85;;;;;;;;;;5103675;28;20087;-67
2023/01/30 06:33:19;;;;;;;8.60;8.20;;;;;;;;;;5106767;28;20037;-67
2023/01/30 06:35:47;;;;;;;8.57;8.18;;;;;;;;;;5102288;28;20021;-67
2023/01/30 06:38:13;;;;;;;8.90;8.50;;;;;;;;;;5100254;28;20360;-69
2023/01/30 06:40:38;;;;;;;9.10;8.70;;;;;;;;;;5099346;28;20042;-66
2023/01/30 06:43:04;;;;;;;8.55;8.15;;;;;;;;;;5104766;28;20555;-68
2023/01/30 06:45:29;;;;;;;8.77;8.38;;;;;;;;;;5105105;28;20028;-68
2023/01/30 06:47:55;;;;;;;8.93;8.52;;;;;;;;;;5094595;28;20498;-67
2023/01/30 06:50:21;;;;;;;9.50;9.10;;;;;;;;;;5104238;28;20475;-67
2023/01/30 06:52:47;;;;;;;9.38;8.98;;;;;;;;;;5095680;28;20374;-69
2023/01/30 06:55:14;;;;;;;9.40;9.00;;;;;;;;;;5103232;28;20016;-69
2023/01/30 06:57:39;;;;;;;9.68;9.27;;;;;;;;;;5096614;28;20032;-68
2023/01/30 07:00:06;;;;;;;9.60;9.20;;;;;;;;;;5079638;28;20062;-68
2023/01/30 07:02:34;;;;;;;10.60;10.10;;;;;;;;;;5101354;28;20019;-68
2023/01/30 07:04:59;;;;;;;9.73;9.32;;;;;;;;;;5103830;28;20028;-68
2023/01/30 07:07:25;;;;;;;9.80;9.40;;;;;;;;;;5106393;28;20031;-68
2023/01/30 07:09:50;;;;;;;9.70;9.30;;;;;;;;;;5103708;28;20104;-67
2023/01/30 07:12:15;;;;;;;10.00;9.60;;;;;;;;;;5084053;28;20019;-69
2023/01/30 07:14:41;;;;;;;10.30;9.80;;;;;;;;;;5106239;28;20024;-68
2023/01/30 07:17:06;;;;;;;10.00;9.60;;;;;;;;;;5105315;28;20012;-69
2023/01/30 07:19:31;;;;;;;9.73;9.32;;;;;;;;;;5105332;28;20543;-69
2023/01/30 07:21:57;;;;;;;10.40;9.90;;;;;;;;;;5105534;28;20031;-69
2023/01/30 07:24:22;;;;;;;10.70;10.20;;;;;;;;;;5105802;28;20047;-68
2023/01/30 07:26:47;;;;;;;10.20;9.80;;;;;;;;;;5106903;28;20024;-68
2023/01/30 07:29:13;;;;;;;9.93;9.52;;;;;;;;;;5108017;28;20068;-68
2023/01/30 07:31:38;;;;;;;10.07;9.68;;;;;;;;;;5099037;28;20032;-68
2023/01/30 07:34:04;;;;;;;10.50;10.00;;;;;;;;;;5102115;28;20482;-68
2023/01/30 07:36:32;;;;;;;10.20;9.80;;;;;;;;;;5084355;28;20335;-67
2023/01/30 07:38:57;;;;;;;9.80;9.40;;;;;;;;;;5099699;28;20483;-68
2023/01/30 07:41:23;;;;;;;10.80;10.30;;;;;;;;;;5100570;28;20031;-68
2023/01/30 07:43:48;;;;;;;10.40;9.90;;;;;;;;;;5080684;28;20024;-68
2023/01/30 07:46:13;;;;;;;10.20;9.77;;;;;;;;;;5102223;28;20041;-69
2023/01/30 07:48:38;;;;;;;10.20;9.80;;;;;;;;;;5104508;28;20020;-68
2023/01/30 07:51:04;;;;;;;10.45;9.95;;;;;;;;;;5095660;28;20111;-68
2023/01/30 07:53:29;;;;;;;10.30;9.90;;;;;;;;;;5102922;28;20275;-68
2023/01/30 07:55:54;;;;;;;10.60;10.10;;;;;;;;;;5103225;28;20024;-67
2023/01/30 07:58:19;;;;;;;10.75;10.25;;;;;;;;;;5081002;28;20380;-68
2023/01/30 08:00:45;;;;;;;10.55;10.05;;;;;;;;;;5107457;28;20043;-68
2023/01/30 08:03:11;;;;;;;10.50;10.00;;;;;;;;;;5108076;28;20054;-68
2023/01/30 08:05:36;;;;;;;10.00;9.60;;;;;;;;;;5083079;28;20024;-68
2023/01/30 08:08:01;;;;;;;9.93;9.52;;;;;;;;;;5101464;28;20363;-68
2023/01/30 08:10:27;;;;;;;10.50;10.00;;;;;;;;;;5079978;28;20028;-68
2023/01/30 08:12:52;;;;;;;10.10;9.70;;;;;;;;;;5087004;28;20119;-67
2023/01/30 08:15:17;;;;;;;10.20;9.80;;;;;;;;;;5088624;28;20016;-68
2023/01/30 08:17:43;;;;;;;10.13;9.73;;;;;;;;;;5102716;28;20012;-68
2023/01/30 08:20:08;;;;;;;9.93;9.52;;;;;;;;;;5099849;28;20016;-68
2023/01/30 08:22:34;;;;;;;10.40;9.90;;;;;;;;;;5101133;28;20502;-68
2023/01/30 08:24:59;;;;;;;10.60;10.10;;;;;;;;;;5100374;28;20016;-69
2023/01/30 08:27:25;;;;;;;10.70;10.20;;;;;;;;;;5102580;28;20015;-68
2023/01/30 08:29:50;;;;;;;9.93;9.52;;;;;;;;;;5106511;28;20102;-69
2023/01/30 08:32:15;;;;;;;9.82;9.43;;;;;;;;;;5104455;28;20497;-68
2023/01/30 08:34:41;;;;;;;10.38;9.90;;;;;;;;;;5098246;28;20093;-69
2023/01/30 08:37:06;;;;;;;10.30;9.80;;;;;;;;;;5102542;28;20020;-68
2023/01/30 08:39:31;;;;;;;10.15;9.70;;;;;;;;;;5100281;28;20020;-67
2023/01/30 08:41:57;;;;;;;9.85;9.45;;;;;;;;;;5102072;28;20034;-69
2023/01/30 08:44:22;;;;;;;10.52;10.02;;;;;;;;;;5105631;28;20015;-68
2023/01/30 08:46:47;;;;;;;10.43;9.93;;;;;;;;;;5099344;28;20102;-68
2023/01/30 08:49:13;;;;;;;9.90;9.50;;;;;;;;;;5104162;28;20019;-69
2023/01/30 08:51:38;;;;;;;10.20;9.70;;;;;;;;;;5081864;28;20035;-68
2023/01/30 08:54:06;;;;;;;10.35;9.85;;;;;;;;;;5098190;28;20410;-68
2023/01/30 08:56:31;;;;;;;9.75;9.35;;;;;;;;;;5085409;28;20111;-68
2023/01/30 08:58:57;;;;;;;9.75;9.35;;;;;;;;;;5099319;28;20120;-69
2023/01/30 09:01:22;;;;;;;9.90;9.50;;;;;;;;;;5098454;28;20020;-68
2023/01/30 09:03:47;;;;;;;10.02;9.63;;;;;;;;;;5087046;28;20475;-68
2023/01/30 09:06:13;;;;;;;9.77;9.38;;;;;;;;;;5104274;28;20537;-68
2023/01/30 09:08:38;;;;;;;10.52;10.02;;;;;;;;;;5099507;28;20032;-68
2023/01/30 09:11:04;;;;;;;10.25;9.75;;;;;;;;;;5098064;28;20441;-67
2023/01/30 09:13:29;;;;;;;9.93;9.52;;;;;;;;;;5101089;28;20394;-67
2023/01/30 09:15:55;;;;;;;9.88;9.48;;;;;;;;;;5103705;28;20024;-67
2023/01/30 09:18:20;;;;;;;9.82;9.43;;;;;;;;;;5104719;28;20045;-68
2023/01/30 09:20:46;;;;;;;10.07;9.63;;;;;;;;;;5101224;28;20032;-67
2023/01/30 09:23:11;;;;;;;10.30;9.80;;;;;;;;;;5098373;28;20027;-67
2023/01/30 09:25:36;;;;;;;10.60;10.10;;;;;;;;;;5084241;28;20132;-68
2023/01/30 09:28:02;;;;;;;10.30;9.80;;;;;;;;;;5105818;28;20078;-69
2023/01/30 09:30:27;;;;;;;10.75;10.25;;;;;;;;;;5084081;28;20045;-68
2023/01/30 09:32:52;;;;;;;9.73;9.32;;;;;;;;;;5095282;28;20031;-68
2023/01/30 09:35:18;;;;;;;9.65;9.25;;;;;;;;;;5097242;28;20516;-68
2023/01/30 09:37:51;;;;;;;9.82;9.43;;;;;;;;;;5097316;28;20020;-69
2023/01/30 09:40:17;;;;;;;9.65;9.25;;;;;;;;;;5094013;28;20031;-68
2023/01/30 09:42:49;;;;;;;9.80;9.40;;;;;;;;;;5095803;28;20110;-68
2023/01/30 09:45:14;;;;;;;10.13;9.63;;;;;;;;;;5099736;28;20024;-68
2023/01/30 09:47:49;;;;;;;9.77;9.38;;;;;;;;;;5101597;28;20035;-68
2023/01/30 09:50:20;;;;;;;10.30;9.80;;;;;;;;;;5094044;28;20019;-68
2023/01/30 09:52:46;;;;;;;10.65;10.15;;;;;;;;;;5102272;28;20080;-68
2023/01/30 09:55:16;;;;;;;10.30;9.80;;;;;;;;;;5080479;28;20477;-68
2023/01/30 09:57:42;;;;;;;11.02;10.48;;;;;;;;;;5097592;28;20066;-68
2023/01/30 10:00:26;;;;;;;10.63;10.13;;;;;;;;;;5101540;28;20020;-67
2023/01/30 10:03:17;;;;;;;10.35;9.85;;;;;;;;;;5075628;28;20529;-68
2023/01/30 10:05:45;;;;;;;10.88;10.27;;;;;;;;;;5096987;28;20612;-68
2023/01/30 10:08:29;;;;;;;9.82;9.40;;;;;;;;;;5104192;28;20028;-68
2023/01/30 10:11:04;;;;;;;11.33;10.73;;;;;;;;;;5097025;28;20513;-67
2023/01/30 10:13:32;;;;;;;10.60;10.02;;;;;;;;;;5100908;28;20267;-68
2023/01/30 10:16:05;;;;;;;10.23;9.73;;;;;;;;;;5100134;28;20022;-67
2023/01/30 10:18:39;;;;;;;10.18;9.68;;;;;;;;;;5098084;28;20027;-67
2023/01/30 10:21:43;;;;;;;9.80;9.30;;;;;;;;;;5101150;28;20027;-68
2023/01/30 10:24:27;;;;;;;9.50;9.10;;;;;;;;;;5006206;28;20034;-67
2023/01/30 10:26:53;;;;;;;9.23;8.82;;;;;;;;;;4991069;28;20533;-68
2023/01/30 10:29:18;;;;;;;9.73;9.27;;;;;;;;;;5055588;28;20043;-68
2023/01/30 10:31:53;;;;;;;10.48;9.90;;;;;;;;;;5101055;28;20020;-68
2023/01/30 10:34:21;;;;;;;9.40;9.00;;;;;;;;;;5098323;28;20024;-69
2023/01/30 10:36:52;;;;;;;10.85;10.25;;;;;;;;;;5098644;28;20023;-68
2023/01/30 10:39:35;;;;;;;9.82;9.32;;;;;;;;;;5095843;28;20095;-68
2023/01/30 10:42:07;;;;;;;9.88;9.38;;;;;;;;;;5094897;28;20028;-68
2023/01/30 10:44:33;;;;;;;9.57;9.07;;;;;;;;;;5096483;28;20046;-68
2023/01/30 10:47:17;;;;;;;10.68;10.07;;;;;;;;;;5095268;28;20016;-67
2023/01/30 10:49:53;;;;;;;10.40;9.80;;;;;;;;;;5102967;28;20110;-68
2023/01/30 10:52:26;;;;;;;9.30;8.90;;;;;;;;;;5105183;28;20020;-68
2023/01/30 10:54:51;;;;;;;9.52;9.02;;;;;;;;;;5098849;28;20538;-68
2023/01/30 10:57:35;;;;;;;9.65;9.15;;;;;;;;;;5101313;28;20060;-68
2023/01/30 11:00:04;;;;;;;9.63;9.13;;;;;;;;;;5082457;28;20051;-68
2023/01/30 11:02:48;;;;;;;10.05;9.55;;;;;;;;;;5099672;28;20062;-67
2023/01/30 11:05:13;;;;;;;9.13;8.73;;;;;;;;;;5099477;28;20088;-68
2023/01/30 11:07:39;;;;;;;9.93;9.43;;;;;;;;;;5101103;28;20455;-68
2023/01/30 11:10:13;;;;;;;9.25;8.85;;;;;;;;;;5102342;28;20028;-68
2023/01/30 11:12:38;;;;;;;9.70;9.20;;;;;;;;;;5098902;28;20023;-67
2023/01/30 11:15:04;;;;;;;9.40;8.93;;;;;;;;;;5099316;28;20023;-67
2023/01/30 11:17:34;;;;;;;9.68;9.18;;;;;;;;;;5103721;28;20068;-69
2023/01/30 11:20:12;;;;;;;9.07;8.68;;;;;;;;;;5102708;28;20413;-67
2023/01/30 11:22:43;;;;;;;9.65;9.15;;;;;;;;;;5099829;28;20506;-67
2023/01/30 11:25:19;;;;;;;9.73;9.23;;;;;;;;;;5105490;28;20051;-69
2023/01/30 11:27:51;;;;;;;11.30;10.60;;;;;;;;;;5104465;28;20486;-68
2023/01/30 11:30:18;;;;;;;8.75;8.35;;;;;;;;;;5095228;28;20026;-68
2023/01/30 11:32:44;;;;;;;10.38;9.82;;;;;;;;;;5105641;28;20019;-69
2023/01/30 11:35:21;;;;;;;10.95;10.32;;;;;;;;;;5107335;28;20020;-68
2023/01/30 11:37:46;;;;;;;9.55;9.05;;;;;;;;;;5101290;28;20032;-68
2023/01/30 11:40:18;;;;;;;9.38;8.93;;;;;;;;;;5105414;28;20020;-68
2023/01/30 11:42:45;;;;;;;9.00;8.60;;;;;;;;;;5100174;28;20095;-68
2023/01/30 11:45:11;;;;;;;9.63;9.13;;;;;;;;;;5103669;28;20012;-67
2023/01/30 11:47:36;;;;;;;10.55;9.95;;;;;;;;;;5098545;28;20027;-68
2023/01/30 11:50:01;;;;;;;9.45;8.95;;;;;;;;;;5104173;28;20019;-67
2023/01/30 11:52:32;;;;;;;10.07;9.57;;;;;;;;;;5099375;28;20012;-67
2023/01/30 11:55:00;;;;;;;9.60;9.10;;;;;;;;;;5091075;28;20032;-68
2023/01/30 11:57:25;;;;;;;9.95;9.45;;;;;;;;;;5104132;28;20044;-68
2023/01/30 11:59:55;;;;;;;11.18;10.50;;;;;;;;;;5104676;28;20028;-67
2023/01/30 12:02:38;;;;;;;9.80;9.30;;;;;;;;;;5102630;28;20111;-69
2023/01/30 12:05:18;;;;;;;10.10;9.57;;;;;;;;;;5104971;28;20020;-68
2023/01/30 12:07:45;;;;;;;9.48;8.98;;;;;;;;;;5083660;28;20016;-69
2023/01/30 12:10:22;;;;;;;8.98;8.57;;;;;;;;;;5105307;28;20036;-68
2023/01/30 12:12:51;;;;;;;10.52;9.93;;;;;;;;;;5102484;28;20035;-67
2023/01/30 12:15:24;;;;;;;9.68;9.18;;;;;;;;;;5099120;28;20008;-68
2023/01/30 12:17:49;;;;;;;9.18;8.77;;;;;;;;;;5104680;28;20019;-68
2023/01/30 12:20:15;;;;;;;10.02;9.52;;;;;;;;;;5105024;28;20024;-68
2023/01/30 12:22:52;;;;;;;9.68;9.18;;;;;;;;;;5101832;28;20027;-68
2023/01/30 12:25:28;;;;;;;10.10;9.52;;;;;;;;;;5100634;28;20030;-68
2023/01/30 12:28:00;;;;;;;9.38;8.93;;;;;;;;;;5098889;28;20437;-68
2023/01/30 12:30:30;;;;;;;9.85;9.35;;;;;;;;;;5105111;28;20053;-68
2023/01/30 12:32:58;;;;;;;11.02;10.40;;;;;;;;;;5100939;28;20043;-68
2023/01/30 12:35:26;;;;;;;9.95;9.45;;;;;;;;;;5098359;28;20020;-68
2023/01/30 12:37:59;;;;;;;9.35;8.90;;;;;;;;;;5100124;28;20043;-68
2023/01/30 12:40:31;;;;;;;9.25;8.85;;;;;;;;;;5100380;28;20159;-68
2023/01/30 12:43:19;;;;;;;10.65;10.05;;;;;;;;;;5102191;28;20027;-68
2023/01/30 12:45:54;;;;;;;9.80;9.30;;;;;;;;;;5052719;28;20098;-68
2023/01/30 12:48:19;;;;;;;;;;;;;;;;;;5100891;28;20117;-69
2023/01/30 12:51:03;;;;;;;9.55;9.05;;;;;;;;;;5100076;28;19912;-68
2023/01/30 12:53:28;;;;;;;8.93;8.52;;;;;;;;;;5099904;28;20114;-68
2023/01/30 12:55:56;;;;;;;9.82;9.32;;;;;;;;;;5101320;28;20387;-68
2023/01/30 12:58:21;;;;;;;9.90;9.40;;;;;;;;;;5099071;28;20502;-68
2023/01/30 13:00:55;;;;;;;9.13;8.73;;;;;;;;;;5105291;28;20035;-68
2023/01/30 13:03:29;;;;;;;8.80;8.40;;;;;;;;;;5097996;28;20023;-68
2023/01/30 13:05:55;;;;;;;;;;;;;;;;;;5100206;28;20260;-68
2023/01/30 13:08:35;;;;;;;9.38;8.88;;;;;;;;;;5099516;28;19918;-68
2023/01/30 13:11:03;;;;;;;9.20;8.77;;;;;;;;;;5101523;28;20027;-69
2023/01/30 13:13:29;;;;;;;9.95;9.45;;;;;;;;;;5100507;28;20027;-68
2023/01/30 13:16:00;;;;;;;9.30;8.80;;;;;;;;;;5100018;28;20028;-68
2023/01/30 13:18:30;;;;;;;9.65;9.15;;;;;;;;;;5100668;28;20016;-68
2023/01/30 13:21:14;;;;;;;9.25;8.82;;;;;;;;;;5103651;28;20102;-68
2023/01/30 13:23:40;;;;;;;9.68;9.18;;;;;;;;;;5096625;28;20027;-70
2023/01/30 13:26:05;;;;;;;9.57;9.07;;;;;;;;;;5108433;28;20391;-69
2023/01/30 13:28:34;;;;;;;10.10;9.60;;;;;;;;;;5104585;28;20019;-68
2023/01/30 13:31:00;;;;;;;9.40;9.00;;;;;;;;;;5098598;28;20447;-69
2023/01/30 13:33:29;;;;;;;9.55;9.05;;;;;;;;;;5102198;28;20023;-68
2023/01/30 13:36:01;;;;;;;9.95;9.45;;;;;;;;;;5100677;28;20020;-67
2023/01/30 13:38:27;;;;;;;9.73;9.23;;;;;;;;;;5095981;28;20019;-67
2023/01/30 13:40:55;;;;;;;9.63;9.13;;;;;;;;;;5097437;28;20027;-67
2023/01/30 13:43:33;;;;;;;9.82;9.32;;;;;;;;;;5082874;28;20020;-68
2023/01/30 13:46:00;;;;;;;9.93;9.43;;;;;;;;;;5095120;28;20103;-69
2023/01/30 13:48:32;;;;;;;9.00;8.60;;;;;;;;;;5100487;28;20542;-68
2023/01/30 13:50:57;;;;;;;11.07;10.45;;;;;;;;;;5100298;28;20471;-68
2023/01/30 13:53:33;;;;;;;9.38;8.93;;;;;;;;;;5099596;28;20122;-68
2023/01/30 13:56:02;;;;;;;9.88;9.38;;;;;;;;;;5099305;28;20020;-68
2023/01/30 13:58:30;;;;;;;11.30;10.60;;;;;;;;;;5098709;28;20553;-68
2023/01/30 14:00:56;;;;;;;9.43;8.95;;;;;;;;;;5101198;28;20027;-68
2023/01/30 14:03:30;;;;;;;9.45;8.95;;;;;;;;;;5103840;28;20515;-68
2023/01/30 14:05:59;;;;;;;9.13;8.70;;;;;;;;;;5096062;28;20023;-68
2023/01/30 14:08:29;;;;;;;9.70;9.20;;;;;;;;;;5097918;28;20054;-68
2023/01/30 14:10:55;;;;;;;9.50;9.00;;;;;;;;;;5097980;28;20027;-68
2023/01/30 14:13:21;;;;;;;9.60;9.10;;;;;;;;;;5101963;28;20027;-68
2023/01/30 14:15:54;;;;;;;9.60;9.10;;;;;;;;;;5097733;28;20047;-68
2023/01/30 14:18:23;;;;;;;9.98;9.48;;;;;;;;;;5096087;28;20437;-68
2023/01/30 14:20:50;;;;;;;12.05;11.27;;;;;;;;;;5093789;28;20024;-68
2023/01/30 14:23:15;;;;;;;9.52;9.02;;;;;;;;;;5096983;28;20027;-67
2023/01/30 14:25:44;;;;;;;10.00;9.50;;;;;;;;;;5101340;28;20024;-69
2023/01/30 14:28:09;;;;;;;10.35;9.75;;;;;;;;;;5103738;28;20024;-67
2023/01/30 14:30:35;;;;;;;9.60;9.10;;;;;;;;;;5099352;28;20027;-68
2023/01/30 14:33:02;;;;;;;9.55;9.05;;;;;;;;;;5105128;28;20551;-68
2023/01/30 14:35:29;;;;;;;9.75;9.25;;;;;;;;;;5105435;28;20020;-68
2023/01/30 14:38:03;;;;;;;8.90;8.50;;;;;;;;;;5101782;28;20015;-69
2023/01/30 14:40:30;;;;;;;9.63;9.13;;;;;;;;;;5103268;28;20050;-68
2023/01/30 14:43:11;;;;;;;9.60;9.10;;;;;;;;;;5112035;28;20016;-69
2023/01/30 14:45:53;;;;;;;9.50;9.00;;;;;;;;;;5102878;28;20024;-68
2023/01/30 14:48:31;;;;;;;9.57;9.07;;;;;;;;;;5081200;28;20472;-68